createdAt,value
2018-12-21T00:03:33.433Z,200.30
2018-12-21T00:07:39.032Z,204.50
2018-12-21T00:11:44.658Z,201.83
2018-12-21T00:15:56.460Z,188.77
2018-12-21T00:20:02.025Z,186.93
2018-12-21T00:28:19.565Z,177.43
2018-12-21T00:32:30.429Z,180.43
2018-12-21T00:36:40.942Z,175.27
2018-12-21T00:40:54.976Z,174.43
2018-12-21T00:45:11.496Z,182.23
2018-12-21T00:49:16.645Z,183.60
2018-12-21T00:53:22.311Z,191.70
2018-12-21T00:57:31.964Z,185.53
2018-12-21T01:01:38.883Z,168.87
2018-12-21T01:05:44.187Z,165.40
2018-12-21T01:09:53.267Z,173.93
2018-12-21T01:13:58.559Z,169.20
2018-12-21T01:18:05.386Z,181.07
2018-12-21T01:22:17.482Z,177.63
2018-12-21T01:26:23.039Z,181.93
2018-12-21T01:30:35.533Z,177.23
2018-12-21T01:34:41.682Z,169.87
2018-12-21T01:42:56.019Z,168.37
2018-12-21T01:47:01.204Z,166.03
2018-12-21T01:51:06.942Z,171.33
2018-12-21T01:59:24.665Z,172.17
2018-12-21T02:03:30.078Z,165.17
2018-12-21T02:07:38.490Z,169.73
2018-12-21T02:11:43.516Z,165.07
2018-12-21T02:15:48.871Z,153.13
2018-12-21T02:20:02.110Z,156.70
2018-12-21T02:24:09.115Z,167.07
2018-12-21T02:28:17.502Z,157.60
2018-12-21T02:32:23.050Z,161.13
2018-12-21T02:36:28.194Z,152.77
2018-12-21T02:40:36.718Z,147.83
2018-12-21T02:44:41.734Z,144.70
2018-12-21T02:48:47.922Z,156.03
2018-12-21T02:52:59.784Z,155.07
2018-12-21T02:57:06.437Z,144.93
2018-12-21T03:01:11.412Z,149.97
2018-12-21T03:05:17.958Z,151.07
2018-12-21T03:09:23.096Z,141.07
2018-12-21T03:13:28.743Z,135.23
2018-12-21T03:17:37.256Z,141.23
2018-12-21T03:21:43.272Z,149.70
2018-12-21T03:25:48.323Z,147.30
2018-12-21T03:30:00.613Z,136.23
2018-12-21T03:34:06.983Z,151.10
2018-12-21T03:42:20.670Z,138.03
2018-12-21T03:46:25.834Z,140.70
2018-12-21T03:50:39.242Z,139.30
2018-12-21T03:54:46.711Z,137.07
2018-12-21T03:58:56.744Z,130.17
2018-12-21T04:03:02.084Z,125.13
2018-12-21T04:07:08.585Z,134.03
2018-12-21T04:11:18.444Z,132.53
2018-12-21T04:15:23.628Z,130.07
2018-12-21T04:19:29.795Z,127.47
2018-12-21T04:23:45.075Z,124.43
2018-12-21T04:27:50.430Z,130.47
2018-12-21T04:31:59.720Z,135.10
2018-12-21T04:36:06.135Z,134.23
2018-12-21T04:40:11.535Z,127.60
2018-12-21T04:44:19.858Z,126.13
2018-12-21T04:48:26.266Z,124.37
2018-12-21T04:56:41.877Z,124.73
2018-12-21T05:00:47.052Z,125.17
2018-12-21T05:09:06.400Z,116.83
2018-12-21T05:13:15.065Z,118.00
2018-12-21T05:17:20.468Z,123.03
2018-12-21T05:21:26.074Z,124.30
2018-12-21T05:25:31.560Z,107.17
2018-12-21T05:29:39.618Z,109.33
2018-12-21T05:33:45.412Z,108.83
2018-12-21T05:37:50.537Z,104.87
2018-12-21T05:41:57.745Z,116.63
2018-12-21T05:46:03.627Z,119.33
2018-12-21T05:50:09.968Z,146.40
2018-12-21T05:54:18.678Z,142.70
2018-12-21T05:58:23.978Z,129.57
2018-12-21T06:02:29.821Z,117.33
2018-12-21T06:06:43.560Z,124.33
2018-12-21T06:10:48.600Z,118.83
2018-12-21T06:15:02.360Z,120.10
2018-12-21T06:19:09.633Z,118.40
2018-12-21T06:23:18.019Z,112.63
2018-12-21T06:27:24.587Z,116.83
2018-12-21T06:31:30.212Z,122.43
2018-12-21T06:35:39.802Z,125.87
2018-12-21T06:39:45.118Z,124.57
2018-12-21T06:43:50.339Z,115.30
2018-12-21T06:48:03.324Z,116.03
2018-12-21T06:52:08.938Z,121.83
2018-12-21T06:56:18.318Z,125.10
2018-12-21T07:00:23.507Z,124.33
2018-12-21T07:04:28.751Z,117.57
2018-12-21T07:08:37.928Z,115.17
2018-12-21T07:12:42.999Z,110.43
2018-12-21T07:16:47.996Z,112.47
2018-12-21T07:21:00.653Z,118.93
2018-12-21T07:25:07.324Z,117.53
2018-12-21T07:33:24.294Z,109.70
2018-12-21T07:37:29.366Z,104.17
2018-12-21T07:41:38.438Z,103.60
2018-12-21T07:45:45.290Z,89.17
2018-12-21T07:49:50.438Z,103.90
2018-12-21T07:53:58.972Z,105.57
2018-12-21T07:58:05.642Z,116.53
2018-12-21T08:02:11.039Z,110.00
2018-12-21T08:06:23.525Z,89.13
2018-12-21T08:10:29.385Z,98.17
2018-12-21T08:18:49.699Z,99.60
2018-12-21T08:22:55.771Z,98.57
2018-12-21T08:27:03.633Z,96.77
2018-12-21T08:31:11.309Z,97.53
2018-12-21T08:39:26.847Z,94.00
2018-12-21T08:43:32.259Z,85.90
2018-12-21T08:47:47.778Z,97.40
2018-12-21T08:51:53.232Z,90.13
2018-12-21T08:56:02.894Z,98.83
2018-12-21T09:00:12.716Z,93.27
2018-12-21T09:04:32.139Z,90.60
2018-12-21T09:08:34.090Z,94.40
2018-12-21T09:12:43.047Z,90.73
2018-12-21T09:16:48.762Z,92.87
2018-12-21T09:20:56.214Z,83.33
2018-12-21T09:25:04.923Z,94.10
2018-12-21T09:29:10.760Z,87.47
2018-12-21T09:33:16.314Z,117.13
2018-12-21T09:37:29.544Z,95.10
2018-12-21T09:41:35.720Z,87.20
2018-12-21T09:45:48.226Z,98.00
2018-12-21T09:54:10.105Z,94.80
2018-12-21T09:58:16.377Z,82.00
2018-12-21T10:02:23.330Z,80.90
2018-12-21T10:06:29.803Z,82.57
2018-12-21T10:14:54.328Z,81.17
2018-12-21T10:18:59.764Z,86.07
2018-12-21T10:23:12.689Z,84.30
2018-12-21T10:27:19.368Z,72.37
2018-12-21T10:31:28.511Z,81.73
2018-12-21T10:35:35.067Z,82.63
2018-12-21T10:39:40.315Z,87.93
2018-12-21T10:43:54.102Z,90.63
2018-12-21T10:48:00.175Z,77.23
2018-12-21T10:52:15.178Z,84.47
2018-12-21T10:56:21.117Z,79.77
2018-12-21T11:00:30.087Z,73.50
2018-12-21T11:04:35.786Z,73.17
2018-12-21T11:08:41.263Z,83.60
2018-12-21T11:12:49.836Z,74.43
2018-12-21T11:16:57.326Z,74.53
2018-12-21T11:21:10.882Z,82.43
2018-12-21T11:25:17.152Z,87.27
2018-12-21T11:29:26.377Z,82.13
2018-12-21T11:33:32.814Z,80.43
2018-12-21T11:37:38.099Z,81.13
2018-12-21T11:41:51.228Z,83.13
2018-12-21T11:45:57.316Z,77.00
2018-12-21T11:50:03.403Z,75.20
2018-12-21T11:54:15.370Z,83.37
2018-12-21T11:58:20.942Z,71.13
2018-12-21T12:06:36.439Z,74.93
2018-12-21T12:10:42.254Z,77.73
2018-12-21T12:14:52.516Z,78.77
2018-12-21T12:18:57.815Z,82.53
2018-12-21T12:23:05.163Z,77.70
2018-12-21T12:27:14.717Z,94.27
2018-12-21T12:31:20.833Z,99.80
2018-12-21T12:35:26.588Z,87.13
2018-12-21T12:39:35.926Z,82.07
2018-12-21T12:48:00.012Z,104.53
2018-12-21T12:52:05.475Z,92.47
2018-12-21T12:56:13.864Z,102.73
2018-12-21T13:00:20.345Z,93.53
2018-12-21T13:08:40.308Z,110.63
2018-12-21T13:12:45.407Z,103.00
2018-12-21T13:16:54.308Z,89.53
2018-12-21T13:21:00.180Z,93.87
2018-12-21T13:25:11.377Z,91.83
2018-12-21T13:29:15.769Z,93.90
2018-12-21T13:33:23.407Z,93.80
2018-12-21T13:37:35.341Z,86.23
2018-12-21T13:41:42.202Z,103.53
2018-12-21T13:49:56.869Z,104.50
2018-12-21T13:54:03.370Z,101.57
2018-12-21T13:58:13.483Z,95.10
2018-12-21T14:02:20.359Z,95.60
2018-12-21T14:06:25.648Z,102.17
2018-12-21T14:10:38.048Z,106.07
2018-12-21T14:14:44.464Z,102.17
2018-12-21T14:18:58.837Z,102.63
2018-12-21T14:23:06.338Z,96.00
2018-12-21T14:27:15.073Z,105.63
2018-12-21T14:31:22.202Z,106.87
2018-12-21T14:39:36.076Z,101.17
2018-12-21T14:43:41.160Z,111.50
2018-12-21T14:51:56.682Z,123.63
2018-12-21T14:56:02.005Z,108.37
2018-12-21T15:00:11.475Z,118.67
2018-12-21T15:04:18.966Z,115.17
2018-12-21T15:08:24.123Z,115.97
2018-12-21T15:12:30.263Z,117.67
2018-12-21T15:16:44.759Z,119.80
2018-12-21T15:25:05.083Z,121.50
2018-12-21T15:29:10.867Z,110.00
2018-12-21T15:33:17.680Z,110.27
2018-12-21T15:37:23.674Z,116.10
2018-12-21T15:41:29.662Z,113.40
2018-12-21T15:45:42.494Z,121.57
2018-12-21T15:49:48.537Z,108.17
2018-12-21T15:54:01.096Z,114.73
2018-12-21T15:58:08.491Z,101.43
2018-12-21T16:02:22.315Z,108.93
2018-12-21T16:06:29.317Z,113.80
2018-12-21T16:10:38.768Z,108.93
2018-12-21T16:14:45.935Z,116.03
2018-12-21T16:18:51.388Z,122.43
2018-12-21T16:22:58.814Z,116.07
2018-12-21T16:27:07.808Z,119.93
2018-12-21T16:31:37.059Z,115.37
2018-12-21T16:35:44.377Z,116.23
2018-12-21T16:39:54.461Z,119.50
2018-12-21T16:44:04.110Z,118.90
2018-12-21T16:48:10.420Z,118.30
2018-12-21T16:52:16.749Z,121.03
2018-12-21T16:56:25.119Z,126.73
2018-12-21T17:00:47.045Z,124.97
2018-12-21T17:04:53.787Z,119.27
2018-12-21T17:09:01.696Z,118.67
2018-12-21T17:13:08.701Z,121.47
2018-12-21T17:17:22.960Z,123.90
2018-12-21T17:26:53.627Z,110.37
2018-12-21T17:30:59.531Z,115.30
2018-12-21T17:35:12.483Z,120.30
2018-12-21T17:39:19.179Z,117.40
2018-12-21T17:43:29.998Z,118.70
2018-12-21T17:47:35.242Z,117.37
2018-12-21T17:51:41.642Z,136.57
2018-12-21T17:55:46.937Z,132.80
2018-12-21T17:59:55.810Z,128.77
2018-12-21T18:04:16.603Z,122.90
2018-12-21T18:08:23.617Z,124.67
2018-12-21T18:12:31.490Z,138.60
2018-12-21T18:16:38.534Z,132.87
2018-12-21T18:20:45.814Z,132.50
2018-12-21T18:25:02.251Z,138.53
2018-12-21T18:29:13.858Z,132.00
2018-12-21T18:33:23.009Z,131.30
2018-12-21T18:37:31.457Z,131.63
2018-12-21T18:41:36.715Z,127.83
2018-12-21T18:45:42.088Z,123.90
2018-12-21T18:49:49.208Z,118.53
2018-12-21T18:54:05.570Z,128.63
2018-12-21T18:58:11.266Z,127.27
2018-12-21T19:02:20.401Z,116.27
2018-12-21T19:06:29.130Z,125.43
2018-12-21T19:10:42.473Z,120.00
2018-12-21T19:14:48.021Z,128.30
2018-12-21T19:18:58.694Z,108.47
2018-12-21T19:23:06.699Z,118.43
2018-12-21T19:31:25.186Z,115.70
2018-12-21T19:35:30.846Z,118.93
2018-12-21T19:39:40.688Z,119.60
2018-12-21T19:43:45.772Z,116.93
2018-12-21T19:47:50.993Z,110.10
2018-12-21T19:52:03.799Z,113.90
2018-12-21T19:56:18.959Z,123.13
2018-12-21T20:00:24.564Z,106.93
2018-12-21T20:04:29.901Z,119.13
2018-12-21T20:08:38.274Z,98.60
2018-12-21T20:12:43.956Z,105.13
2018-12-21T20:16:49.993Z,109.60
2018-12-21T20:21:06.384Z,112.57
2018-12-21T20:29:28.781Z,101.43
2018-12-21T20:33:39.345Z,91.80
2018-12-21T20:37:45.279Z,113.37
2018-12-21T20:46:06.297Z,112.23
2018-12-21T20:50:15.758Z,102.37
2018-12-21T20:54:24.470Z,108.87
2018-12-21T20:58:44.140Z,98.73
2018-12-21T21:02:50.694Z,104.10
2018-12-21T21:11:08.117Z,102.83
2018-12-21T21:15:14.643Z,115.93
2018-12-21T21:19:24.025Z,109.33
2018-12-21T21:23:29.194Z,106.63
2018-12-21T21:27:35.324Z,99.33
2018-12-21T21:31:50.548Z,118.93
2018-12-21T21:40:10.737Z,104.73
2018-12-21T21:48:30.849Z,108.23
2018-12-21T21:56:50.181Z,105.57
2018-12-21T22:00:56.832Z,112.67
2018-12-21T22:05:05.516Z,111.50
2018-12-21T22:09:12.724Z,103.20
2018-12-21T22:17:32.831Z,119.50
2018-12-21T22:21:42.056Z,114.13
2018-12-21T22:25:53.381Z,114.27
2018-12-21T22:29:55.368Z,99.43
2018-12-21T22:34:04.163Z,96.60
2018-12-21T22:38:10.304Z,92.20
2018-12-21T22:42:16.395Z,101.77
2018-12-21T22:46:25.235Z,102.20
2018-12-21T22:50:30.670Z,87.83
2018-12-21T22:54:37.158Z,85.60
2018-12-21T22:58:47.185Z,87.03
2018-12-21T23:02:52.496Z,106.73
2018-12-21T23:07:03.844Z,106.80
2018-12-21T23:11:08.857Z,100.93
2018-12-21T23:15:14.658Z,83.60
2018-12-21T23:19:24.705Z,106.63
2018-12-21T23:23:29.857Z,105.57
2018-12-21T23:27:35.336Z,110.30
2018-12-21T23:31:41.811Z,105.60
2018-12-21T23:35:50.291Z,99.63
2018-12-21T23:39:56.646Z,101.10
2018-12-21T23:44:07.552Z,104.83
2018-12-21T23:48:14.072Z,97.10
2018-12-21T23:52:19.208Z,108.73
2018-12-21T23:56:28.812Z,105.10
